createdAt,value
2023-04-08T00:00:29.030Z,99.90
2023-04-08T00:03:30.886Z,99.90
2023-04-08T00:06:32.801Z,99.90
2023-04-08T00:09:34.316Z,99.90
2023-04-08T00:12:36.146Z,99.90
2023-04-08T00:15:37.946Z,99.90
2023-04-08T00:18:39.484Z,99.90
2023-04-08T00:21:41.149Z,99.90
2023-04-08T00:24:42.991Z,99.90
2023-04-08T00:27:44.649Z,99.90
2023-04-08T00:30:46.349Z,99.90
2023-04-08T00:33:47.943Z,99.90
2023-04-08T00:36:49.513Z,99.90
2023-04-08T00:39:53.762Z,99.90
2023-04-08T00:42:57.867Z,99.90
2023-04-08T00:45:59.492Z,99.90
2023-04-08T00:49:02.254Z,99.90
2023-04-08T00:52:04.198Z,99.90
2023-04-08T00:55:06.346Z,99.90
2023-04-08T00:58:08.416Z,99.90
2023-04-08T01:01:17.620Z,99.90
2023-04-08T01:04:53.472Z,99.90
2023-04-08T01:07:55.207Z,99.70
2023-04-08T01:11:00.839Z,99.90
2023-04-08T01:14:07.351Z,99.90
2023-04-08T01:17:10.380Z,99.90
2023-04-08T01:20:14.968Z,99.90
2023-04-08T01:23:29.948Z,99.90
2023-04-08T01:26:32.462Z,99.90
2023-04-08T01:29:35.350Z,99.90
2023-04-08T01:32:38.465Z,99.90
2023-04-08T01:35:40.445Z,99.90
2023-04-08T01:38:42.754Z,99.90
2023-04-08T01:41:45.493Z,99.90
2023-04-08T01:44:48.189Z,99.90
2023-04-08T01:47:50.543Z,99.90
2023-04-08T01:50:52.635Z,99.90
2023-04-08T01:53:54.263Z,99.90
2023-04-08T01:56:57.421Z,99.90
2023-04-08T02:00:10.039Z,99.90
2023-04-08T02:03:13.773Z,99.90
2023-04-08T02:06:15.749Z,99.90
2023-04-08T02:09:17.390Z,99.90
2023-04-08T02:12:19.512Z,99.90
2023-04-08T02:15:21.206Z,99.90
2023-04-08T02:18:31.649Z,99.90
2023-04-08T02:21:48.418Z,99.90
2023-04-08T02:24:50.722Z,99.90
2023-04-08T02:27:54.243Z,99.90
2023-04-08T02:30:57.835Z,99.90
2023-04-08T02:34:00.347Z,99.90
2023-04-08T02:37:02.578Z,99.90
2023-04-08T02:40:21.773Z,99.90
2023-04-08T02:43:31.568Z,99.90
2023-04-08T02:46:33.139Z,99.90
2023-04-08T02:49:34.699Z,99.90
2023-04-08T02:52:36.339Z,99.90
2023-04-08T02:55:37.993Z,99.90
2023-04-08T02:58:39.595Z,99.90
2023-04-08T03:01:41.165Z,99.90
2023-04-08T03:04:42.759Z,99.90
2023-04-08T03:07:44.339Z,99.90
2023-04-08T03:10:45.923Z,99.90
2023-04-08T03:13:47.577Z,99.90
2023-04-08T03:16:49.275Z,99.90
2023-04-08T03:19:51.083Z,99.90
2023-04-08T03:22:52.699Z,99.90
2023-04-08T03:25:54.252Z,99.90
2023-04-08T03:28:56.102Z,99.90
2023-04-08T03:31:58.018Z,99.90
2023-04-08T03:34:59.631Z,99.90
2023-04-08T03:38:01.310Z,99.90
2023-04-08T03:41:02.943Z,99.90
2023-04-08T03:44:04.533Z,99.90
2023-04-08T03:47:06.313Z,99.90
2023-04-08T03:50:08.376Z,99.90
2023-04-08T03:53:12.112Z,99.90
2023-04-08T03:56:13.718Z,99.90
2023-04-08T03:59:15.302Z,99.90
2023-04-08T04:02:17.136Z,99.90
2023-04-08T04:05:18.914Z,99.90
2023-04-08T04:08:20.570Z,99.90
2023-04-08T04:11:22.463Z,99.90
2023-04-08T04:14:24.122Z,99.90
2023-04-08T04:17:25.816Z,99.90
2023-04-08T04:20:29.096Z,99.90
2023-04-08T04:23:30.808Z,99.90
2023-04-08T04:26:32.365Z,99.90
2023-04-08T04:29:33.990Z,99.90
2023-04-08T04:32:35.835Z,99.90
2023-04-08T04:35:39.054Z,99.90
2023-04-08T04:38:40.732Z,99.90
2023-04-08T04:41:42.327Z,99.90
2023-04-08T04:44:44.497Z,99.90
2023-04-08T04:47:46.105Z,99.90
2023-04-08T04:50:55.493Z,99.90
2023-04-08T04:53:57.056Z,99.90
2023-04-08T04:56:58.804Z,99.90
2023-04-08T05:00:01.353Z,99.90
2023-04-08T05:03:04.577Z,99.90
2023-04-08T05:06:06.327Z,99.90
2023-04-08T05:09:07.890Z,99.90
2023-04-08T05:12:09.473Z,99.90
2023-04-08T05:15:11.310Z,99.90
2023-04-08T05:18:13.251Z,99.90
2023-04-08T05:21:14.840Z,99.90
2023-04-08T05:24:16.375Z,99.90
2023-04-08T05:27:18.002Z,99.90
2023-04-08T05:30:19.715Z,99.90
2023-04-08T05:33:21.467Z,99.90
2023-04-08T05:36:23.044Z,99.90
2023-04-08T05:39:24.665Z,99.90
2023-04-08T05:42:27.029Z,99.90
2023-04-08T05:45:29.184Z,99.90
2023-04-08T05:48:30.978Z,99.90
2023-04-08T05:51:32.584Z,99.90
2023-04-08T05:54:34.152Z,99.90
2023-04-08T05:57:36.006Z,99.90
2023-04-08T06:00:37.590Z,99.90
2023-04-08T06:03:39.390Z,99.90
2023-04-08T06:06:41.182Z,99.90
2023-04-08T06:09:44.316Z,99.90
2023-04-08T06:12:46.904Z,99.90
2023-04-08T06:15:51.366Z,99.90
2023-04-08T06:18:53.251Z,99.90
2023-04-08T06:21:58.880Z,99.90
2023-04-08T06:25:00.500Z,99.90
2023-04-08T06:28:02.173Z,99.90
2023-04-08T06:31:03.788Z,99.90
2023-04-08T06:34:05.545Z,99.90
2023-04-08T06:37:07.841Z,99.90
2023-04-08T06:40:09.900Z,99.90
2023-04-08T06:43:11.493Z,99.90
2023-04-08T06:46:13.093Z,99.90
2023-04-08T06:49:14.686Z,99.90
2023-04-08T06:52:16.937Z,99.90
2023-04-08T06:55:18.501Z,99.90
2023-04-08T06:58:20.208Z,99.90
2023-04-08T07:01:22.115Z,99.90
2023-04-08T07:04:23.766Z,99.90
2023-04-08T07:07:25.403Z,99.90
2023-04-08T07:10:26.947Z,99.90
2023-04-08T07:13:29.486Z,99.90
2023-04-08T07:16:31.081Z,99.90
2023-04-08T07:19:33.445Z,99.90
2023-04-08T07:22:35.106Z,99.90
2023-04-08T07:25:36.769Z,99.90
2023-04-08T07:28:38.329Z,99.90
2023-04-08T07:31:39.941Z,99.90
2023-04-08T07:34:41.667Z,99.90
2023-04-08T07:37:43.262Z,99.90
2023-04-08T07:40:44.845Z,99.90
2023-04-08T07:43:46.746Z,99.90
2023-04-08T07:46:51.433Z,99.90
2023-04-08T07:49:54.654Z,99.90
2023-04-08T07:52:57.453Z,99.90
2023-04-08T07:55:59.368Z,99.90
2023-04-08T07:59:01.061Z,99.90
2023-04-08T08:02:02.941Z,99.90
2023-04-08T08:05:06.307Z,99.90
2023-04-08T08:08:08.006Z,99.90
2023-04-08T08:11:09.701Z,99.90
2023-04-08T08:14:13.494Z,99.90
2023-04-08T08:17:15.047Z,99.90
2023-04-08T08:20:17.118Z,99.90
2023-04-08T08:23:18.931Z,99.90
2023-04-08T08:26:21.152Z,99.90
2023-04-08T08:29:22.737Z,99.90
2023-04-08T08:32:24.299Z,99.90
2023-04-08T08:35:25.963Z,99.90
2023-04-08T08:38:27.818Z,99.90
2023-04-08T08:41:35.104Z,99.90
2023-04-08T08:44:36.678Z,99.90
2023-04-08T08:47:38.278Z,99.90
2023-04-08T08:50:39.894Z,99.90
2023-04-08T08:53:45.585Z,99.90
2023-04-08T08:56:48.933Z,99.30
2023-04-08T08:59:50.613Z,99.70
2023-04-08T09:02:52.436Z,99.70
2023-04-08T09:06:00.166Z,99.50
2023-04-08T09:09:02.964Z,98.70
2023-04-08T09:12:04.756Z,99.30
2023-04-08T09:15:08.359Z,99.70
2023-04-08T09:18:23.248Z,99.00
2023-04-08T09:21:26.536Z,99.10
2023-04-08T09:24:30.240Z,99.20
2023-04-08T09:27:36.003Z,99.00
2023-04-08T09:30:37.695Z,98.80
2023-04-08T09:33:39.320Z,98.80
2023-04-08T09:36:41.166Z,98.80
2023-04-08T09:39:42.786Z,99.00
2023-04-08T09:42:48.616Z,98.70
2023-04-08T09:45:51.333Z,98.30
2023-04-08T09:49:07.316Z,98.30
2023-04-08T09:52:20.519Z,97.90
2023-04-08T09:55:23.804Z,97.80
2023-04-08T09:58:33.011Z,97.80
2023-04-08T10:01:40.017Z,97.60
2023-04-08T10:04:48.796Z,97.40
2023-04-08T10:07:51.588Z,97.40
2023-04-08T10:10:54.712Z,97.20
2023-04-08T10:13:56.550Z,97.30
2023-04-08T10:17:26.449Z,97.40
2023-04-08T10:20:37.013Z,97.40
2023-04-08T10:23:58.482Z,97.60
2023-04-08T10:27:00.108Z,97.60
2023-04-08T10:30:01.723Z,97.60
2023-04-08T10:33:10.669Z,97.40
2023-04-08T10:36:14.928Z,96.90
2023-04-08T10:39:17.085Z,97.10
2023-04-08T10:42:18.707Z,96.90
2023-04-08T10:45:20.256Z,97.00
2023-04-08T10:48:25.776Z,97.20
2023-04-08T10:51:33.722Z,97.10
2023-04-08T10:54:36.750Z,97.30
2023-04-08T10:57:40.774Z,97.30
2023-04-08T11:00:42.343Z,97.20
2023-04-08T11:03:44.622Z,97.00
2023-04-08T11:06:47.337Z,96.90
2023-04-08T11:09:49.444Z,96.70
2023-04-08T11:12:51.411Z,96.60
2023-04-08T11:15:53.420Z,96.50
2023-04-08T11:18:56.707Z,96.80
2023-04-08T11:21:58.760Z,96.50
2023-04-08T11:25:01.130Z,96.50
2023-04-08T11:28:02.990Z,96.40
2023-04-08T11:31:06.704Z,96.10
2023-04-08T11:34:08.516Z,96.30
2023-04-08T11:37:10.500Z,96.10
2023-04-08T11:40:13.565Z,95.40
2023-04-08T11:43:15.437Z,95.80
2023-04-08T11:46:17.109Z,95.60
2023-04-08T11:49:18.771Z,95.50
2023-04-08T11:52:20.373Z,95.30
2023-04-08T11:55:25.872Z,95.00
2023-04-08T11:58:27.426Z,94.90
2023-04-08T12:01:29.038Z,94.90
2023-04-08T12:04:31.147Z,95.10
2023-04-08T12:07:32.832Z,94.90
2023-04-08T12:10:34.438Z,95.20
2023-04-08T12:13:35.999Z,95.70
2023-04-08T12:16:37.605Z,95.30
2023-04-08T12:19:39.227Z,95.50
2023-04-08T12:22:41.088Z,95.50
2023-04-08T12:25:42.999Z,95.70
2023-04-08T12:28:44.558Z,95.50
2023-04-08T12:31:46.192Z,95.20
2023-04-08T12:34:47.890Z,94.90
2023-04-08T12:37:49.418Z,94.90
2023-04-08T12:40:51.426Z,94.90
2023-04-08T12:43:53.025Z,94.20
2023-04-08T12:46:54.856Z,94.70
2023-04-08T12:49:56.444Z,94.60
2023-04-08T12:52:57.954Z,94.60
2023-04-08T12:55:59.540Z,94.70
2023-04-08T12:59:01.826Z,94.70
2023-04-08T13:02:03.392Z,94.60
2023-04-08T13:05:05.344Z,95.00
2023-04-08T13:08:06.944Z,95.00
2023-04-08T13:11:11.419Z,95.10
2023-04-08T13:14:53.356Z,95.10
2023-04-08T13:17:59.313Z,94.90
2023-04-08T13:21:48.554Z,95.60
2023-04-08T13:29:37.768Z,94.70
2023-04-08T13:36:46.840Z,94.20
2023-04-08T13:39:48.471Z,94.50
2023-04-08T13:42:50.036Z,94.90
2023-04-08T13:45:52.001Z,94.60
2023-04-08T13:48:53.857Z,94.90
2023-04-08T13:51:55.830Z,94.40
2023-04-08T13:54:57.502Z,94.30
2023-04-08T13:57:59.087Z,94.50
2023-04-08T14:01:00.663Z,94.70
2023-04-08T14:04:02.452Z,94.70
2023-04-08T14:07:04.047Z,94.60
2023-04-08T14:10:06.160Z,94.40
2023-04-08T14:13:07.767Z,93.90
2023-04-08T14:16:09.386Z,93.60
2023-04-08T14:19:11.058Z,94.20
2023-04-08T14:22:12.733Z,93.90
2023-04-08T14:25:14.417Z,94.20
2023-04-08T14:28:15.986Z,94.10
2023-04-08T14:31:17.621Z,94.30
2023-04-08T14:34:19.220Z,94.30
2023-04-08T14:37:21.017Z,94.50
2023-04-08T14:40:22.706Z,94.30
2023-04-08T14:43:24.524Z,94.40
2023-04-08T14:46:28.901Z,94.50
2023-04-08T14:49:30.764Z,94.60
2023-04-08T14:52:32.366Z,94.80
2023-04-08T14:55:33.996Z,94.50
2023-04-08T14:58:35.685Z,94.60
2023-04-08T15:01:37.521Z,94.60
2023-04-08T15:04:39.147Z,94.40
2023-04-08T15:07:41.624Z,94.60
2023-04-08T15:10:43.162Z,94.80
2023-04-08T15:13:44.775Z,94.70
2023-04-08T15:16:46.383Z,94.60
2023-04-08T15:19:47.910Z,95.10
2023-04-08T15:22:49.500Z,94.80
2023-04-08T15:25:51.069Z,95.20
2023-04-08T15:28:54.525Z,94.90
2023-04-08T15:31:56.425Z,94.70
2023-04-08T15:34:58.086Z,94.70
2023-04-08T15:38:00.524Z,94.60
2023-04-08T15:41:02.220Z,94.60
2023-04-08T15:44:03.968Z,94.70
2023-04-08T15:47:05.596Z,94.70
2023-04-08T15:50:07.725Z,94.50
2023-04-08T15:53:09.297Z,94.20
2023-04-08T15:56:18.305Z,94.10
2023-04-08T15:59:20.081Z,94.10
2023-04-08T16:02:21.837Z,94.30
2023-04-08T16:05:23.658Z,94.30
2023-04-08T16:08:25.496Z,94.30
2023-04-08T16:11:27.574Z,94.30
2023-04-08T16:14:29.940Z,94.40
2023-04-08T16:17:31.635Z,94.30
2023-04-08T16:20:36.527Z,94.50
2023-04-08T16:23:38.192Z,94.70
2023-04-08T16:26:40.842Z,94.50
2023-04-08T16:29:43.168Z,94.70
2023-04-08T16:32:44.895Z,94.70
2023-04-08T16:35:46.516Z,94.70
2023-04-08T16:38:48.130Z,94.60
2023-04-08T16:41:49.755Z,94.60
2023-04-08T16:44:56.636Z,94.70
2023-04-08T16:47:58.471Z,95.00
2023-04-08T16:51:03.644Z,95.00
2023-04-08T16:54:05.185Z,94.50
2023-04-08T16:57:06.852Z,94.50
2023-04-08T17:00:08.782Z,94.60
2023-04-08T17:03:10.720Z,94.40
2023-04-08T17:06:13.582Z,94.80
2023-04-08T17:09:15.339Z,94.50
2023-04-08T17:12:16.884Z,95.10
2023-04-08T17:15:18.464Z,94.60
2023-04-08T17:18:20.215Z,94.60
2023-04-08T17:21:21.845Z,94.70
2023-04-08T17:24:23.536Z,94.70
2023-04-08T17:27:25.151Z,94.70
2023-04-08T17:30:26.708Z,94.60
2023-04-08T17:33:28.477Z,94.60
2023-04-08T17:36:31.208Z,94.70
2023-04-08T17:39:33.444Z,94.70
2023-04-08T17:42:35.032Z,94.80
2023-04-08T17:45:36.640Z,94.70
2023-04-08T17:48:39.256Z,94.90
2023-04-08T17:51:40.833Z,94.90
2023-04-08T17:54:42.383Z,94.90
2023-04-08T17:57:44.004Z,94.90
2023-04-08T18:00:47.141Z,94.90
2023-04-08T18:03:51.141Z,95.10
2023-04-08T18:06:52.942Z,95.30
2023-04-08T18:09:54.705Z,95.00
2023-04-08T18:13:10.341Z,95.00
2023-04-08T18:16:17.226Z,94.90
2023-04-08T18:19:18.872Z,95.40
2023-04-08T18:22:22.355Z,95.00
2023-04-08T18:25:23.908Z,95.80
2023-04-08T18:28:25.489Z,95.10
2023-04-08T18:31:27.118Z,95.00
2023-04-08T18:34:28.662Z,95.60
2023-04-08T18:37:31.358Z,94.80
2023-04-08T18:40:33.580Z,95.70
2023-04-08T18:43:35.261Z,95.60
2023-04-08T18:46:37.494Z,95.10
2023-04-08T18:49:39.129Z,95.00
2023-04-08T18:52:40.729Z,95.00
2023-04-08T18:55:44.535Z,95.00
2023-04-08T18:58:47.129Z,95.00
2023-04-08T19:01:48.848Z,95.10
2023-04-08T19:04:50.558Z,95.20
2023-04-08T19:07:52.994Z,95.40
2023-04-08T19:10:54.836Z,95.20
2023-04-08T19:13:56.624Z,95.50
2023-04-08T19:16:58.286Z,95.10
2023-04-08T19:19:59.939Z,95.10
2023-04-08T19:23:01.569Z,95.20
2023-04-08T19:26:06.446Z,95.10
2023-04-08T19:29:09.377Z,95.30
2023-04-08T19:32:10.952Z,95.50
2023-04-08T19:35:13.318Z,95.30
2023-04-08T19:38:14.916Z,95.20
2023-04-08T19:41:16.559Z,95.50
2023-04-08T19:44:18.129Z,95.20
2023-04-08T19:47:19.730Z,95.10
2023-04-08T19:50:22.266Z,95.20
2023-04-08T19:53:23.816Z,95.20
2023-04-08T19:56:25.762Z,95.30
2023-04-08T19:59:27.417Z,95.00
2023-04-08T20:02:29.096Z,95.60
2023-04-08T20:05:30.864Z,95.30
2023-04-08T20:08:34.470Z,95.10
2023-04-08T20:11:36.103Z,95.10
2023-04-08T20:14:41.957Z,95.40
2023-04-08T20:17:43.558Z,95.40
2023-04-08T20:20:46.780Z,95.60
2023-04-08T20:23:48.381Z,95.80
2023-04-08T20:26:50.153Z,95.60
2023-04-08T20:29:52.381Z,95.20
2023-04-08T20:32:54.010Z,95.40
2023-04-08T20:35:57.159Z,95.30
2023-04-08T20:38:59.986Z,95.40
2023-04-08T20:42:01.878Z,95.30
2023-04-08T20:45:03.717Z,95.30
2023-04-08T20:48:05.737Z,95.30
2023-04-08T20:51:07.553Z,95.30
2023-04-08T20:54:09.128Z,95.30
2023-04-08T20:57:10.835Z,95.30
2023-04-08T21:00:13.696Z,95.60
2023-04-08T21:03:15.389Z,95.40
2023-04-08T21:06:18.282Z,95.40
2023-04-08T21:09:19.828Z,95.30
2023-04-08T21:12:21.375Z,95.30
2023-04-08T21:15:23.225Z,95.40
2023-04-08T21:18:24.866Z,95.40
2023-04-08T21:21:27.509Z,95.30
2023-04-08T21:24:30.546Z,95.40
2023-04-08T21:27:32.084Z,95.50
2023-04-08T21:30:33.896Z,95.50
2023-04-08T21:33:35.894Z,95.90
2023-04-08T21:36:37.480Z,95.70
2023-04-08T21:39:39.084Z,95.80
2023-04-08T21:42:40.952Z,96.30
2023-04-08T21:45:42.585Z,96.00
2023-04-08T21:48:44.192Z,96.00
2023-04-08T21:51:45.800Z,95.90
2023-04-08T21:54:51.462Z,96.20
2023-04-08T21:57:53.032Z,96.30
2023-04-08T22:00:54.817Z,96.20
2023-04-08T22:03:56.783Z,96.40
2023-04-08T22:06:58.442Z,96.50
2023-04-08T22:10:01.797Z,95.90
2023-04-08T22:13:03.686Z,96.00
2023-04-08T22:16:05.703Z,95.90
2023-04-08T22:19:07.230Z,95.70
2023-04-08T22:22:08.867Z,95.80
2023-04-08T22:25:10.864Z,95.70
2023-04-08T22:28:12.570Z,95.80
2023-04-08T22:31:14.264Z,95.80
2023-04-08T22:34:16.094Z,95.90
2023-04-08T22:37:17.676Z,95.80
2023-04-08T22:40:19.360Z,96.00
2023-04-08T22:43:21.153Z,96.00
2023-04-08T22:46:22.752Z,96.10
2023-04-08T22:49:24.441Z,96.20
2023-04-08T22:59:40.964Z,96.70
2023-04-08T23:02:42.658Z,96.10
2023-04-08T23:05:44.273Z,96.40
2023-04-08T23:08:45.979Z,96.20
2023-04-08T23:11:47.528Z,96.20
2023-04-08T23:14:49.642Z,96.10
2023-04-08T23:17:51.474Z,96.10
2023-04-08T23:20:54.503Z,96.10
2023-04-08T23:23:56.105Z,96.30
2023-04-08T23:26:57.656Z,96.20
2023-04-08T23:30:05.293Z,96.30
2023-04-08T23:33:06.841Z,96.30
2023-04-08T23:36:12.648Z,96.30
2023-04-08T23:39:14.258Z,95.70
2023-04-08T23:42:16.105Z,96.40
2023-04-08T23:45:17.740Z,96.50
2023-04-08T23:48:19.310Z,96.60
2023-04-08T23:51:20.828Z,96.50
2023-04-08T23:54:22.978Z,96.40
2023-04-08T23:57:24.594Z,96.30
